sensor_id;sensor_type;location;lat;lon;timestamp;temperature;humidity
53254;DHT22;39148;53.332;6.922;2022-11-04T00:01:54;13.30;90.70
53254;DHT22;39148;53.332;6.922;2022-11-04T00:04:22;13.30;90.70
53254;DHT22;39148;53.332;6.922;2022-11-04T00:06:48;13.40;90.90
53254;DHT22;39148;53.332;6.922;2022-11-04T00:09:17;13.30;90.70
53254;DHT22;39148;53.332;6.922;2022-11-04T00:11:43;13.30;90.50
53254;DHT22;39148;53.332;6.922;2022-11-04T00:14:28;13.20;91.30
53254;DHT22;39148;53.332;6.922;2022-11-04T00:16:55;13.40;91.50
53254;DHT22;39148;53.332;6.922;2022-11-04T00:22:25;13.30;90.80
53254;DHT22;39148;53.332;6.922;2022-11-04T00:28:01;13.30;90.80
53254;DHT22;39148;53.332;6.922;2022-11-04T00:30:46;13.10;91.10
53254;DHT22;39148;53.332;6.922;2022-11-04T00:33:11;13.20;91.40
53254;DHT22;39148;53.332;6.922;2022-11-04T00:35:56;13.30;90.30
53254;DHT22;39148;53.332;6.922;2022-11-04T00:38:23;13.20;91.50
53254;DHT22;39148;53.332;6.922;2022-11-04T00:40:49;13.30;91.10
53254;DHT22;39148;53.332;6.922;2022-11-04T00:43:15;13.30;91.40
53254;DHT22;39148;53.332;6.922;2022-11-04T00:45:41;13.40;91.50
53254;DHT22;39148;53.332;6.922;2022-11-04T00:48:07;13.30;91.10
53254;DHT22;39148;53.332;6.922;2022-11-04T00:53:00;13.20;91.30
53254;DHT22;39148;53.332;6.922;2022-11-04T00:55:26;13.60;90.60
53254;DHT22;39148;53.332;6.922;2022-11-04T00:57:52;13.20;90.70
53254;DHT22;39148;53.332;6.922;2022-11-04T01:00:18;13.20;91.50
53254;DHT22;39148;53.332;6.922;2022-11-04T01:02:44;13.20;91.00
53254;DHT22;39148;53.332;6.922;2022-11-04T01:07:37;13.10;90.90
53254;DHT22;39148;53.332;6.922;2022-11-04T01:10:03;13.20;90.60
53254;DHT22;39148;53.332;6.922;2022-11-04T01:14:55;13.20;91.20
53254;DHT22;39148;53.332;6.922;2022-11-04T01:17:21;13.30;90.80
53254;DHT22;39148;53.332;6.922;2022-11-04T01:19:46;13.20;91.60
53254;DHT22;39148;53.332;6.922;2022-11-04T01:22:12;13.30;91.60
53254;DHT22;39148;53.332;6.922;2022-11-04T01:24:38;13.10;91.60
53254;DHT22;39148;53.332;6.922;2022-11-04T01:31:55;13.30;91.70
53254;DHT22;39148;53.332;6.922;2022-11-04T01:34:21;13.10;91.60
53254;DHT22;39148;53.332;6.922;2022-11-04T01:39:13;13.30;90.70
53254;DHT22;39148;53.332;6.922;2022-11-04T01:47:42;13.20;91.70
53254;DHT22;39148;53.332;6.922;2022-11-04T01:55:24;13.30;91.70
53254;DHT22;39148;53.332;6.922;2022-11-04T01:57:52;13.20;90.90
53254;DHT22;39148;53.332;6.922;2022-11-04T02:00:20;13.20;90.70
53254;DHT22;39148;53.332;6.922;2022-11-04T02:02:52;13.20;91.60
53254;DHT22;39148;53.332;6.922;2022-11-04T02:05:19;13.30;91.70
53254;DHT22;39148;53.332;6.922;2022-11-04T02:07:51;13.20;91.60
53254;DHT22;39148;53.332;6.922;2022-11-04T02:10:19;13.20;90.90
53254;DHT22;39148;53.332;6.922;2022-11-04T02:12:47;13.20;90.60
53254;DHT22;39148;53.332;6.922;2022-11-04T02:24:03;13.20;91.40
53254;DHT22;39148;53.332;6.922;2022-11-04T02:29:36;13.20;90.60
53254;DHT22;39148;53.332;6.922;2022-11-04T02:37:42;13.30;90.80
53254;DHT22;39148;53.332;6.922;2022-11-04T02:40:32;13.20;91.60
53254;DHT22;39148;53.332;6.922;2022-11-04T02:46:31;13.30;91.50
53254;DHT22;39148;53.332;6.922;2022-11-04T02:48:48;13.10;90.40
53254;DHT22;39148;53.332;6.922;2022-11-04T02:51:27;13.20;90.50
53254;DHT22;39148;53.332;6.922;2022-11-04T02:54:08;13.10;90.90
53254;DHT22;39148;53.332;6.922;2022-11-04T02:56:38;13.00;91.60
53254;DHT22;39148;53.332;6.922;2022-11-04T02:59:11;13.10;91.00
53254;DHT22;39148;53.332;6.922;2022-11-04T03:01:41;13.10;91.00
53254;DHT22;39148;53.332;6.922;2022-11-04T03:04:17;13.10;91.70
53254;DHT22;39148;53.332;6.922;2022-11-04T03:06:47;13.10;91.00
53254;DHT22;39148;53.332;6.922;2022-11-04T03:09:14;13.20;91.20
53254;DHT22;39148;53.332;6.922;2022-11-04T03:11:43;13.10;91.00
53254;DHT22;39148;53.332;6.922;2022-11-04T03:14:14;13.10;91.00
53254;DHT22;39148;53.332;6.922;2022-11-04T03:16:51;13.00;91.60
53254;DHT22;39148;53.332;6.922;2022-11-04T03:22:12;13.10;91.20
53254;DHT22;39148;53.332;6.922;2022-11-04T03:24:39;12.90;91.50
53254;DHT22;39148;53.332;6.922;2022-11-04T03:27:30;13.10;90.40
53254;DHT22;39148;53.332;6.922;2022-11-04T03:30:15;13.10;90.40
53254;DHT22;39148;53.332;6.922;2022-11-04T03:35:33;13.10;91.70
53254;DHT22;39148;53.332;6.922;2022-11-04T03:40:25;13.00;91.50
53254;DHT22;39148;53.332;6.922;2022-11-04T03:43:11;13.10;91.00
53254;DHT22;39148;53.332;6.922;2022-11-04T03:45:39;13.10;91.10
53254;DHT22;39148;53.332;6.922;2022-11-04T03:48:06;13.10;90.90
53254;DHT22;39148;53.332;6.922;2022-11-04T03:50:40;13.00;91.60
53254;DHT22;39148;53.332;6.922;2022-11-04T03:53:07;13.10;91.70
53254;DHT22;39148;53.332;6.922;2022-11-04T04:01:51;13.10;90.60
53254;DHT22;39148;53.332;6.922;2022-11-04T04:04:36;12.90;91.70
53254;DHT22;39148;53.332;6.922;2022-11-04T04:07:12;13.10;91.10
53254;DHT22;39148;53.332;6.922;2022-11-04T04:09:52;13.10;90.70
53254;DHT22;39148;53.332;6.922;2022-11-04T04:14:51;13.00;90.80
53254;DHT22;39148;53.332;6.922;2022-11-04T04:20:00;13.00;91.00
53254;DHT22;39148;53.332;6.922;2022-11-04T04:22:34;12.90;90.50
53254;DHT22;39148;53.332;6.922;2022-11-04T04:25:05;13.10;91.80
53254;DHT22;39148;53.332;6.922;2022-11-04T04:27:50;13.00;91.80
53254;DHT22;39148;53.332;6.922;2022-11-04T04:30:17;12.80;91.30
53254;DHT22;39148;53.332;6.922;2022-11-04T04:32:49;12.80;91.70
53254;DHT22;39148;53.332;6.922;2022-11-04T04:35:16;13.10;91.80
53254;DHT22;39148;53.332;6.922;2022-11-04T04:38:03;12.90;91.70
53254;DHT22;39148;53.332;6.922;2022-11-04T04:41:09;12.90;91.00
53254;DHT22;39148;53.332;6.922;2022-11-04T04:43:57;12.90;91.40
53254;DHT22;39148;53.332;6.922;2022-11-04T04:46:42;12.90;91.50
53254;DHT22;39148;53.332;6.922;2022-11-04T04:51:39;12.90;91.80
53254;DHT22;39148;53.332;6.922;2022-11-04T04:54:06;12.80;91.60
53254;DHT22;39148;53.332;6.922;2022-11-04T04:58:58;13.00;91.00
53254;DHT22;39148;53.332;6.922;2022-11-04T05:01:23;13.00;91.30
53254;DHT22;39148;53.332;6.922;2022-11-04T05:03:49;12.90;91.50
53254;DHT22;39148;53.332;6.922;2022-11-04T05:06:15;12.90;91.70
53254;DHT22;39148;53.332;6.922;2022-11-04T05:08:40;12.90;91.70
53254;DHT22;39148;53.332;6.922;2022-11-04T05:11:06;13.00;91.80
53254;DHT22;39148;53.332;6.922;2022-11-04T05:13:32;13.00;91.80
53254;DHT22;39148;53.332;6.922;2022-11-04T05:16:09;12.90;90.60
53254;DHT22;39148;53.332;6.922;2022-11-04T05:18:35;12.80;91.80
53254;DHT22;39148;53.332;6.922;2022-11-04T05:21:05;12.80;91.00
53254;DHT22;39148;53.332;6.922;2022-11-04T05:23:31;12.80;91.80
53254;DHT22;39148;53.332;6.922;2022-11-04T05:25:58;12.90;91.10
53254;DHT22;39148;53.332;6.922;2022-11-04T05:30:50;13.10;91.30
53254;DHT22;39148;53.332;6.922;2022-11-04T05:33:15;12.90;91.50
53254;DHT22;39148;53.332;6.922;2022-11-04T05:35:41;12.80;91.10
53254;DHT22;39148;53.332;6.922;2022-11-04T05:42:59;12.90;91.50
53254;DHT22;39148;53.332;6.922;2022-11-04T05:45:26;12.90;91.00
53254;DHT22;39148;53.332;6.922;2022-11-04T05:48:03;12.90;91.00
53254;DHT22;39148;53.332;6.922;2022-11-04T05:50:30;13.00;91.80
53254;DHT22;39148;53.332;6.922;2022-11-04T05:52:57;13.00;91.20
53254;DHT22;39148;53.332;6.922;2022-11-04T05:55:23;12.70;91.70
53254;DHT22;39148;53.332;6.922;2022-11-04T06:00:15;12.90;91.70
53254;DHT22;39148;53.332;6.922;2022-11-04T06:05:07;12.90;90.90
53254;DHT22;39148;53.332;6.922;2022-11-04T06:09:59;12.90;91.50
53254;DHT22;39148;53.332;6.922;2022-11-04T06:12:25;12.80;91.70
53254;DHT22;39148;53.332;6.922;2022-11-04T06:14:51;12.80;91.00
53254;DHT22;39148;53.332;6.922;2022-11-04T06:17:20;12.80;91.60
53254;DHT22;39148;53.332;6.922;2022-11-04T06:19:46;12.80;90.90
53254;DHT22;39148;53.332;6.922;2022-11-04T06:22:14;12.80;91.70
53254;DHT22;39148;53.332;6.922;2022-11-04T06:27:06;12.80;91.60
53254;DHT22;39148;53.332;6.922;2022-11-04T06:31:58;12.80;91.70
53254;DHT22;39148;53.332;6.922;2022-11-04T06:34:24;12.70;91.70
53254;DHT22;39148;53.332;6.922;2022-11-04T06:36:50;12.80;90.80
53254;DHT22;39148;53.332;6.922;2022-11-04T06:39:16;12.60;91.40
53254;DHT22;39148;53.332;6.922;2022-11-04T06:41:41;12.80;91.60
53254;DHT22;39148;53.332;6.922;2022-11-04T06:44:07;12.70;91.70
53254;DHT22;39148;53.332;6.922;2022-11-04T06:46:38;12.70;91.70
53254;DHT22;39148;53.332;6.922;2022-11-04T06:49:06;12.80;91.40
53254;DHT22;39148;53.332;6.922;2022-11-04T06:54:00;12.70;91.70
53254;DHT22;39148;53.332;6.922;2022-11-04T06:58:53;12.80;91.40
53254;DHT22;39148;53.332;6.922;2022-11-04T07:01:20;12.60;91.00
53254;DHT22;39148;53.332;6.922;2022-11-04T07:03:51;12.70;90.50
53254;DHT22;39148;53.332;6.922;2022-11-04T07:06:18;12.70;91.10
53254;DHT22;39148;53.332;6.922;2022-11-04T07:08:44;12.70;91.30
53254;DHT22;39148;53.332;6.922;2022-11-04T07:11:10;12.70;90.90
53254;DHT22;39148;53.332;6.922;2022-11-04T07:13:36;12.70;91.50
53254;DHT22;39148;53.332;6.922;2022-11-04T07:16:05;12.70;91.70
53254;DHT22;39148;53.332;6.922;2022-11-04T07:18:31;12.80;91.50
53254;DHT22;39148;53.332;6.922;2022-11-04T07:23:24;12.70;91.80
53254;DHT22;39148;53.332;6.922;2022-11-04T07:28:16;12.70;91.80
53254;DHT22;39148;53.332;6.922;2022-11-04T07:30:41;12.70;91.80
53254;DHT22;39148;53.332;6.922;2022-11-04T07:35:35;12.60;91.80
53254;DHT22;39148;53.332;6.922;2022-11-04T07:38:01;12.80;91.30
53254;DHT22;39148;53.332;6.922;2022-11-04T07:40:29;12.70;90.90
53254;DHT22;39148;53.332;6.922;2022-11-04T07:45:20;12.60;91.00
53254;DHT22;39148;53.332;6.922;2022-11-04T07:47:46;12.50;91.30
53254;DHT22;39148;53.332;6.922;2022-11-04T07:55:04;12.60;91.20
53254;DHT22;39148;53.332;6.922;2022-11-04T07:59:56;12.70;91.70
53254;DHT22;39148;53.332;6.922;2022-11-04T08:02:22;12.60;91.80
53254;DHT22;39148;53.332;6.922;2022-11-04T08:07:15;12.50;91.60
53254;DHT22;39148;53.332;6.922;2022-11-04T08:12:07;12.60;91.10
53254;DHT22;39148;53.332;6.922;2022-11-04T08:16:59;12.60;91.20
53254;DHT22;39148;53.332;6.922;2022-11-04T08:21:51;12.70;91.70
53254;DHT22;39148;53.332;6.922;2022-11-04T08:24:17;12.70;91.80
53254;DHT22;39148;53.332;6.922;2022-11-04T08:29:10;12.60;91.80
53254;DHT22;39148;53.332;6.922;2022-11-04T08:34:02;12.50;91.80
53254;DHT22;39148;53.332;6.922;2022-11-04T08:36:32;12.60;91.80
53254;DHT22;39148;53.332;6.922;2022-11-04T08:38:58;12.60;91.30
53254;DHT22;39148;53.332;6.922;2022-11-04T08:41:29;12.50;90.50
53254;DHT22;39148;53.332;6.922;2022-11-04T08:43:56;12.60;91.80
53254;DHT22;39148;53.332;6.922;2022-11-04T08:46:24;12.70;91.10
53254;DHT22;39148;53.332;6.922;2022-11-04T08:48:50;12.60;91.80
53254;DHT22;39148;53.332;6.922;2022-11-04T08:51:22;12.60;91.80
53254;DHT22;39148;53.332;6.922;2022-11-04T08:53:48;12.50;91.80
53254;DHT22;39148;53.332;6.922;2022-11-04T08:56:23;12.50;90.60
53254;DHT22;39148;53.332;6.922;2022-11-04T09:01:16;12.60;91.80
53254;DHT22;39148;53.332;6.922;2022-11-04T09:06:11;12.60;91.50
53254;DHT22;39148;53.332;6.922;2022-11-04T09:08:38;12.50;91.10
53254;DHT22;39148;53.332;6.922;2022-11-04T09:11:09;12.40;90.50
53254;DHT22;39148;53.332;6.922;2022-11-04T09:13:35;12.60;91.60
53254;DHT22;39148;53.332;6.922;2022-11-04T09:16:01;12.60;90.90
53254;DHT22;39148;53.332;6.922;2022-11-04T09:18:27;12.60;91.60
53254;DHT22;39148;53.332;6.922;2022-11-04T09:20:52;12.60;91.80
53254;DHT22;39148;53.332;6.922;2022-11-04T09:23:18;12.70;91.80
53254;DHT22;39148;53.332;6.922;2022-11-04T09:25:44;12.60;91.80
53254;DHT22;39148;53.332;6.922;2022-11-04T09:28:09;12.50;91.80
53254;DHT22;39148;53.332;6.922;2022-11-04T09:33:02;12.60;91.80
53254;DHT22;39148;53.332;6.922;2022-11-04T09:35:28;12.60;91.30
53254;DHT22;39148;53.332;6.922;2022-11-04T09:37:54;12.50;91.80
53254;DHT22;39148;53.332;6.922;2022-11-04T09:40:22;12.60;91.10
53254;DHT22;39148;53.332;6.922;2022-11-04T09:45:30;12.60;91.30
53254;DHT22;39148;53.332;6.922;2022-11-04T09:48:01;12.50;91.10
53254;DHT22;39148;53.332;6.922;2022-11-04T09:50:43;12.60;91.40
53254;DHT22;39148;53.332;6.922;2022-11-04T09:53:15;12.60;91.40
53254;DHT22;39148;53.332;6.922;2022-11-04T09:55:53;12.60;91.30
53254;DHT22;39148;53.332;6.922;2022-11-04T09:58:20;12.60;91.80
53254;DHT22;39148;53.332;6.922;2022-11-04T10:00:56;12.40;91.00
53254;DHT22;39148;53.332;6.922;2022-11-04T10:06:30;12.50;90.70
53254;DHT22;39148;53.332;6.922;2022-11-04T10:17:07;12.60;91.60
53254;DHT22;39148;53.332;6.922;2022-11-04T10:22:14;12.60;91.20
53254;DHT22;39148;53.332;6.922;2022-11-04T10:25:15;12.70;91.70
53254;DHT22;39148;53.332;6.922;2022-11-04T10:27:46;12.40;91.00
53254;DHT22;39148;53.332;6.922;2022-11-04T10:30:21;12.60;90.50
53254;DHT22;39148;53.332;6.922;2022-11-04T10:33:27;12.60;90.90
53254;DHT22;39148;53.332;6.922;2022-11-04T10:35:59;12.60;91.70
53254;DHT22;39148;53.332;6.922;2022-11-04T10:40:54;12.50;91.50
53254;DHT22;39148;53.332;6.922;2022-11-04T10:43:31;12.60;91.70
53254;DHT22;39148;53.332;6.922;2022-11-04T10:46:17;12.60;91.70
53254;DHT22;39148;53.332;6.922;2022-11-04T10:48:56;12.80;91.70
53254;DHT22;39148;53.332;6.922;2022-11-04T10:53:56;12.80;91.00
53254;DHT22;39148;53.332;6.922;2022-11-04T10:56:35;12.60;90.80
53254;DHT22;39148;53.332;6.922;2022-11-04T10:59:30;12.80;90.50
53254;DHT22;39148;53.332;6.922;2022-11-04T11:02:02;12.70;91.00
53254;DHT22;39148;53.332;6.922;2022-11-04T11:06:56;12.70;91.50
53254;DHT22;39148;53.332;6.922;2022-11-04T11:09:28;12.80;91.00
53254;DHT22;39148;53.332;6.922;2022-11-04T11:16:54;12.80;91.30
53254;DHT22;39148;53.332;6.922;2022-11-04T11:19:24;12.80;90.90
53254;DHT22;39148;53.332;6.922;2022-11-04T11:21:53;12.80;90.90
53254;DHT22;39148;53.332;6.922;2022-11-04T11:24:24;12.70;91.20
53254;DHT22;39148;53.332;6.922;2022-11-04T11:26:54;12.80;90.90
53254;DHT22;39148;53.332;6.922;2022-11-04T11:29:31;12.80;91.40
53254;DHT22;39148;53.332;6.922;2022-11-04T11:32:14;12.90;91.00
53254;DHT22;39148;53.332;6.922;2022-11-04T11:34:43;12.70;90.70
53254;DHT22;39148;53.332;6.922;2022-11-04T11:37:20;12.70;90.40
53254;DHT22;39148;53.332;6.922;2022-11-04T11:42:14;12.90;91.60
53254;DHT22;39148;53.332;6.922;2022-11-04T11:44:45;12.80;91.40
53254;DHT22;39148;53.332;6.922;2022-11-04T11:47:34;12.80;91.70
53254;DHT22;39148;53.332;6.922;2022-11-04T11:52:34;13.00;91.70
53254;DHT22;39148;53.332;6.922;2022-11-04T11:58:10;12.90;90.50
53254;DHT22;39148;53.332;6.922;2022-11-04T12:00:58;12.90;91.70
53254;DHT22;39148;53.332;6.922;2022-11-04T12:03:32;13.10;91.70
53254;DHT22;39148;53.332;6.922;2022-11-04T12:12:23;13.00;90.90
53254;DHT22;39148;53.332;6.922;2022-11-04T12:30:23;13.10;90.90
53254;DHT22;39148;53.332;6.922;2022-11-04T12:41:37;13.20;91.10
53254;DHT22;39148;53.332;6.922;2022-11-04T12:44:17;13.10;90.30
53254;DHT22;39148;53.332;6.922;2022-11-04T12:47:41;13.10;91.50
53254;DHT22;39148;53.332;6.922;2022-11-04T13:00:35;13.10;91.50
53254;DHT22;39148;53.332;6.922;2022-11-04T13:08:32;13.10;91.40
53254;DHT22;39148;53.332;6.922;2022-11-04T13:11:24;13.20;90.30
53254;DHT22;39148;53.332;6.922;2022-11-04T13:13:59;13.30;91.60
53254;DHT22;39148;53.332;6.922;2022-11-04T13:16:27;13.20;90.70
53254;DHT22;39148;53.332;6.922;2022-11-04T13:18:54;13.20;90.80
53254;DHT22;39148;53.332;6.922;2022-11-04T13:21:24;13.20;91.30
53254;DHT22;39148;53.332;6.922;2022-11-04T13:24:00;13.40;90.90
53254;DHT22;39148;53.332;6.922;2022-11-04T13:26:29;13.20;90.70
53254;DHT22;39148;53.332;6.922;2022-11-04T13:29:00;13.30;90.20
53254;DHT22;39148;53.332;6.922;2022-11-04T13:34:25;13.30;90.20
53254;DHT22;39148;53.332;6.922;2022-11-04T13:37:36;13.20;90.50
53254;DHT22;39148;53.332;6.922;2022-11-04T13:40:19;13.10;90.60
53254;DHT22;39148;53.332;6.922;2022-11-04T13:45:54;13.20;90.20
53254;DHT22;39148;53.332;6.922;2022-11-04T13:48:25;13.20;90.80
53254;DHT22;39148;53.332;6.922;2022-11-04T13:50:59;13.30;91.40
53254;DHT22;39148;53.332;6.922;2022-11-04T13:53:41;13.20;90.20
53254;DHT22;39148;53.332;6.922;2022-11-04T13:56:07;13.30;91.40
53254;DHT22;39148;53.332;6.922;2022-11-04T14:01:11;13.40;90.50
53254;DHT22;39148;53.332;6.922;2022-11-04T14:03:47;13.30;90.70
53254;DHT22;39148;53.332;6.922;2022-11-04T14:06:14;13.20;91.40
53254;DHT22;39148;53.332;6.922;2022-11-04T14:12:17;13.20;90.20
53254;DHT22;39148;53.332;6.922;2022-11-04T14:14:52;13.30;91.10
53254;DHT22;39148;53.332;6.922;2022-11-04T14:20:10;13.30;90.70
53254;DHT22;39148;53.332;6.922;2022-11-04T14:31:07;13.40;91.40
53254;DHT22;39148;53.332;6.922;2022-11-04T14:38:52;13.40;91.30
53254;DHT22;39148;53.332;6.922;2022-11-04T14:41:30;13.20;90.50
53254;DHT22;39148;53.332;6.922;2022-11-04T14:44:01;13.20;90.10
53254;DHT22;39148;53.332;6.922;2022-11-04T14:46:35;13.20;91.30
53254;DHT22;39148;53.332;6.922;2022-11-04T14:49:05;13.30;91.40
53254;DHT22;39148;53.332;6.922;2022-11-04T14:51:33;13.30;90.70
53254;DHT22;39148;53.332;6.922;2022-11-04T14:54:19;13.40;90.40
53254;DHT22;39148;53.332;6.922;2022-11-04T14:56:45;13.20;90.70
53254;DHT22;39148;53.332;6.922;2022-11-04T14:59:21;13.40;90.20
53254;DHT22;39148;53.332;6.922;2022-11-04T15:01:48;13.30;90.70
53254;DHT22;39148;53.332;6.922;2022-11-04T15:04:28;13.20;90.20
53254;DHT22;39148;53.332;6.922;2022-11-04T15:06:55;13.40;91.10
53254;DHT22;39148;53.332;6.922;2022-11-04T15:09:24;13.30;90.20
53254;DHT22;39148;53.332;6.922;2022-11-04T15:12:10;13.30;91.00
53254;DHT22;39148;53.332;6.922;2022-11-04T15:14:56;13.30;90.70
53254;DHT22;39148;53.332;6.922;2022-11-04T15:17:25;13.20;90.70
53254;DHT22;39148;53.332;6.922;2022-11-04T15:19:53;13.20;91.40
53254;DHT22;39148;53.332;6.922;2022-11-04T15:22:20;13.30;90.60
53254;DHT22;39148;53.332;6.922;2022-11-04T15:24:46;13.20;91.40
53254;DHT22;39148;53.332;6.922;2022-11-04T15:27:26;13.30;90.20
53254;DHT22;39148;53.332;6.922;2022-11-04T15:34:45;13.40;91.00
53254;DHT22;39148;53.332;6.922;2022-11-04T15:37:12;13.20;90.90
53254;DHT22;39148;53.332;6.922;2022-11-04T15:39:41;13.40;90.70
53254;DHT22;39148;53.332;6.922;2022-11-04T15:42:17;13.40;91.10
53254;DHT22;39148;53.332;6.922;2022-11-04T15:55:52;13.30;91.40
53254;DHT22;39148;53.332;6.922;2022-11-04T15:58:18;13.20;90.70
53254;DHT22;39148;53.332;6.922;2022-11-04T16:00:51;13.40;91.40
53254;DHT22;39148;53.332;6.922;2022-11-04T16:03:18;13.30;91.40
53254;DHT22;39148;53.332;6.922;2022-11-04T16:06:03;13.40;91.10
53254;DHT22;39148;53.332;6.922;2022-11-04T16:08:30;13.30;91.00
53254;DHT22;39148;53.332;6.922;2022-11-04T16:13:36;13.40;90.70
53254;DHT22;39148;53.332;6.922;2022-11-04T16:21:30;13.30;91.40
53254;DHT22;39148;53.332;6.922;2022-11-04T16:24:24;13.40;90.20
53254;DHT22;39148;53.332;6.922;2022-11-04T16:26:54;13.30;91.40
53254;DHT22;39148;53.332;6.922;2022-11-04T16:29:23;13.20;91.40
53254;DHT22;39148;53.332;6.922;2022-11-04T16:32:15;13.10;91.20
53254;DHT22;39148;53.332;6.922;2022-11-04T16:34:43;13.30;90.70
53254;DHT22;39148;53.332;6.922;2022-11-04T16:37:10;13.30;90.70
53254;DHT22;39148;53.332;6.922;2022-11-04T16:39:37;13.20;90.60
53254;DHT22;39148;53.332;6.922;2022-11-04T16:42:04;13.20;90.70
53254;DHT22;39148;53.332;6.922;2022-11-04T16:46:57;13.20;91.00
53254;DHT22;39148;53.332;6.922;2022-11-04T16:51:54;13.30;91.40
53254;DHT22;39148;53.332;6.922;2022-11-04T16:54:20;13.30;91.50
53254;DHT22;39148;53.332;6.922;2022-11-04T16:56:46;13.40;91.50
53254;DHT22;39148;53.332;6.922;2022-11-04T17:01:38;13.30;91.50
53254;DHT22;39148;53.332;6.922;2022-11-04T17:04:05;13.20;90.70
53254;DHT22;39148;53.332;6.922;2022-11-04T17:06:32;13.30;90.90
53254;DHT22;39148;53.332;6.922;2022-11-04T17:08:58;13.30;91.40
53254;DHT22;39148;53.332;6.922;2022-11-04T17:11:23;13.20;91.50
53254;DHT22;39148;53.332;6.922;2022-11-04T17:16:15;13.10;91.00
53254;DHT22;39148;53.332;6.922;2022-11-04T17:18:41;13.10;91.40
53254;DHT22;39148;53.332;6.922;2022-11-04T17:21:10;13.10;91.50
53254;DHT22;39148;53.332;6.922;2022-11-04T17:26:04;13.30;90.80
53254;DHT22;39148;53.332;6.922;2022-11-04T17:28:29;13.10;91.40
53254;DHT22;39148;53.332;6.922;2022-11-04T17:30:57;13.30;91.50
53254;DHT22;39148;53.332;6.922;2022-11-04T17:33:23;13.10;91.50
53254;DHT22;39148;53.332;6.922;2022-11-04T17:35:49;13.10;90.80
53254;DHT22;39148;53.332;6.922;2022-11-04T17:38:16;13.20;90.80
53254;DHT22;39148;53.332;6.922;2022-11-04T17:40:43;13.10;91.40
53254;DHT22;39148;53.332;6.922;2022-11-04T17:46:17;13.00;91.30
53254;DHT22;39148;53.332;6.922;2022-11-04T17:51:42;13.00;91.50
53254;DHT22;39148;53.332;6.922;2022-11-04T17:54:08;13.00;90.50
53254;DHT22;39148;53.332;6.922;2022-11-04T17:56:34;13.10;91.20
53254;DHT22;39148;53.332;6.922;2022-11-04T17:59:00;13.20;91.50
53254;DHT22;39148;53.332;6.922;2022-11-04T18:01:26;12.90;91.10
53254;DHT22;39148;53.332;6.922;2022-11-04T18:03:53;13.00;90.70
53254;DHT22;39148;53.332;6.922;2022-11-04T18:06:20;12.90;90.80
53254;DHT22;39148;53.332;6.922;2022-11-04T18:08:46;13.00;90.70
53254;DHT22;39148;53.332;6.922;2022-11-04T18:11:13;13.00;91.50
53254;DHT22;39148;53.332;6.922;2022-11-04T18:16:25;13.10;90.70
53254;DHT22;39148;53.332;6.922;2022-11-04T18:18:50;13.00;91.00
53254;DHT22;39148;53.332;6.922;2022-11-04T18:21:16;13.10;91.40
53254;DHT22;39148;53.332;6.922;2022-11-04T18:23:42;13.00;91.50
53254;DHT22;39148;53.332;6.922;2022-11-04T18:26:08;13.00;91.50
53254;DHT22;39148;53.332;6.922;2022-11-04T18:28:36;13.00;91.50
53254;DHT22;39148;53.332;6.922;2022-11-04T18:31:10;13.00;91.00
53254;DHT22;39148;53.332;6.922;2022-11-04T18:33:36;12.90;90.70
53254;DHT22;39148;53.332;6.922;2022-11-04T18:36:04;13.00;90.80
53254;DHT22;39148;53.332;6.922;2022-11-04T18:38:30;13.00;90.50
53254;DHT22;39148;53.332;6.922;2022-11-04T18:40:56;12.90;91.50
53254;DHT22;39148;53.332;6.922;2022-11-04T18:45:48;12.90;91.50
53254;DHT22;39148;53.332;6.922;2022-11-04T18:48:15;12.90;91.30
53254;DHT22;39148;53.332;6.922;2022-11-04T18:50:41;12.90;90.80
53254;DHT22;39148;53.332;6.922;2022-11-04T18:55:33;12.90;91.40
53254;DHT22;39148;53.332;6.922;2022-11-04T19:00:25;12.80;90.80
53254;DHT22;39148;53.332;6.922;2022-11-04T19:02:51;13.00;91.50
53254;DHT22;39148;53.332;6.922;2022-11-04T19:05:17;12.70;91.40
53254;DHT22;39148;53.332;6.922;2022-11-04T19:10:10;12.70;91.10
53254;DHT22;39148;53.332;6.922;2022-11-04T19:17:46;12.90;91.40
53254;DHT22;39148;53.332;6.922;2022-11-04T19:20:13;12.80;91.40
53254;DHT22;39148;53.332;6.922;2022-11-04T19:22:39;12.80;91.30
53254;DHT22;39148;53.332;6.922;2022-11-04T19:25:06;12.80;90.90
53254;DHT22;39148;53.332;6.922;2022-11-04T19:29:57;12.70;91.30
53254;DHT22;39148;53.332;6.922;2022-11-04T19:32:23;12.60;91.40
53254;DHT22;39148;53.332;6.922;2022-11-04T19:34:49;12.70;91.40
53254;DHT22;39148;53.332;6.922;2022-11-04T19:37:14;12.80;91.50
53254;DHT22;39148;53.332;6.922;2022-11-04T19:42:06;12.80;91.10
53254;DHT22;39148;53.332;6.922;2022-11-04T19:44:51;12.70;90.90
53254;DHT22;39148;53.332;6.922;2022-11-04T19:47:16;12.70;91.20
53254;DHT22;39148;53.332;6.922;2022-11-04T19:49:42;12.70;91.40
53254;DHT22;39148;53.332;6.922;2022-11-04T19:52:08;12.70;91.40
53254;DHT22;39148;53.332;6.922;2022-11-04T19:54:34;12.70;91.40
53254;DHT22;39148;53.332;6.922;2022-11-04T19:59:25;12.70;91.40
53254;DHT22;39148;53.332;6.922;2022-11-04T20:01:51;12.70;90.90
53254;DHT22;39148;53.332;6.922;2022-11-04T20:06:43;12.70;91.40
53254;DHT22;39148;53.332;6.922;2022-11-04T20:11:37;12.60;90.80
53254;DHT22;39148;53.332;6.922;2022-11-04T20:14:24;12.50;91.20
53254;DHT22;39148;53.332;6.922;2022-11-04T20:16:50;12.70;91.50
53254;DHT22;39148;53.332;6.922;2022-11-04T20:19:15;12.50;91.40
53254;DHT22;39148;53.332;6.922;2022-11-04T20:24:10;12.60;90.80
53254;DHT22;39148;53.332;6.922;2022-11-04T20:26:36;12.50;91.20
53254;DHT22;39148;53.332;6.922;2022-11-04T20:29:04;12.60;91.00
53254;DHT22;39148;53.332;6.922;2022-11-04T20:31:33;12.60;90.70
53254;DHT22;39148;53.332;6.922;2022-11-04T20:34:01;12.40;90.90
53254;DHT22;39148;53.332;6.922;2022-11-04T20:36:29;12.40;90.50
53254;DHT22;39148;53.332;6.922;2022-11-04T20:39:00;12.40;90.60
53254;DHT22;39148;53.332;6.922;2022-11-04T20:41:27;12.50;90.50
53254;DHT22;39148;53.332;6.922;2022-11-04T20:46:30;12.50;90.30
53254;DHT22;39148;53.332;6.922;2022-11-04T20:51:27;12.40;91.40
53254;DHT22;39148;53.332;6.922;2022-11-04T20:53:55;12.40;90.70
53254;DHT22;39148;53.332;6.922;2022-11-04T20:56:28;12.60;91.00
53254;DHT22;39148;53.332;6.922;2022-11-04T20:58:55;12.30;91.30
53254;DHT22;39148;53.332;6.922;2022-11-04T21:01:23;12.30;90.70
53254;DHT22;39148;53.332;6.922;2022-11-04T21:03:53;12.40;91.10
53254;DHT22;39148;53.332;6.922;2022-11-04T21:06:19;12.50;91.50
53254;DHT22;39148;53.332;6.922;2022-11-04T21:08:46;12.50;91.10
53254;DHT22;39148;53.332;6.922;2022-11-04T21:11:12;12.20;91.40
53254;DHT22;39148;53.332;6.922;2022-11-04T21:16:04;12.20;91.20
53254;DHT22;39148;53.332;6.922;2022-11-04T21:18:29;12.30;91.40
53254;DHT22;39148;53.332;6.922;2022-11-04T21:23:24;12.20;90.70
53254;DHT22;39148;53.332;6.922;2022-11-04T21:25:55;12.30;91.10